createdAt,value
2019-02-12T13:18:02.197Z,5.53
2019-02-12T13:20:31.381Z,10.60
2019-02-12T13:23:09.209Z,10.23
2019-02-12T13:25:37.055Z,4.20
2019-02-12T13:28:04.683Z,4.87
2019-02-12T13:30:32.288Z,3.40
2019-02-12T13:33:02.047Z,3.47
2019-02-12T13:35:29.581Z,3.50
2019-02-12T13:37:57.286Z,2.77
2019-02-12T13:40:24.959Z,2.70
2019-02-12T13:43:00.281Z,2.73
2019-02-12T13:45:30.104Z,2.47
2019-02-12T13:47:58.181Z,3.77
2019-02-12T13:50:25.672Z,3.00
2019-02-12T13:53:03.277Z,2.50
2019-02-12T13:55:32.779Z,2.60
2019-02-12T13:58:00.291Z,4.17
2019-02-12T14:00:27.837Z,4.27
2019-02-12T14:02:55.443Z,4.10
2019-02-12T14:05:22.963Z,3.47
2019-02-12T14:07:50.515Z,2.03
2019-02-12T14:10:18.045Z,2.40
2019-02-12T14:12:45.575Z,1.43
2019-02-12T14:15:13.590Z,1.87
2019-02-12T14:17:43.475Z,2.50
2019-02-12T14:20:19.602Z,2.60
2019-02-12T14:22:47.689Z,3.67
2019-02-12T14:25:16.250Z,2.73
2019-02-12T14:27:44.457Z,1.87
2019-02-12T14:30:12.969Z,2.90
2019-02-12T14:32:40.838Z,2.87
2019-02-12T14:35:09.857Z,4.67
2019-02-12T14:37:39.669Z,4.00
2019-02-12T14:40:08.743Z,1.80
2019-02-12T14:42:45.720Z,2.83
2019-02-12T14:45:14.103Z,5.00
2019-02-12T14:47:41.705Z,6.53
2019-02-12T14:50:10.335Z,2.70
2019-02-12T14:52:38.497Z,8.00
2019-02-12T14:55:09.129Z,2.30
2019-02-12T14:57:36.663Z,2.50
2019-02-12T15:00:05.274Z,2.53
2019-02-12T15:02:32.884Z,2.10
2019-02-12T15:05:00.823Z,1.47
2019-02-12T15:07:28.665Z,1.60
2019-02-12T15:09:56.574Z,1.50
2019-02-12T15:12:25.560Z,1.50
2019-02-12T15:14:53.294Z,1.80
2019-02-12T15:17:20.862Z,1.67
2019-02-12T15:19:48.483Z,2.17
2019-02-12T15:22:16.041Z,1.10
2019-02-12T15:24:43.648Z,1.53
2019-02-12T15:27:11.299Z,2.53
2019-02-12T15:29:39.173Z,3.63
2019-02-12T15:32:06.809Z,3.30
2019-02-12T15:34:34.367Z,4.47
2019-02-12T15:37:01.877Z,2.43
2019-02-12T15:39:29.401Z,4.23
2019-02-12T15:41:56.967Z,4.93
2019-02-12T15:44:24.487Z,3.07
2019-02-12T15:46:52.073Z,3.60
2019-02-12T15:49:19.581Z,4.73
2019-02-12T15:51:47.109Z,8.23
2019-02-12T15:54:14.659Z,6.87
2019-02-12T15:56:42.213Z,5.53
2019-02-12T15:59:09.731Z,6.47
2019-02-12T16:01:37.297Z,6.20
2019-02-12T16:04:05.955Z,5.43
2019-02-12T16:06:33.507Z,6.60
2019-02-12T16:09:01.069Z,8.57
2019-02-12T16:11:28.583Z,4.20
2019-02-12T16:13:58.737Z,4.13
2019-02-12T16:16:27.979Z,5.10
2019-02-12T16:18:55.799Z,6.67
2019-02-12T16:21:23.336Z,8.90
2019-02-12T16:23:50.897Z,7.80
2019-02-12T16:26:18.457Z,7.13
2019-02-12T16:28:46.012Z,3.83
2019-02-12T16:31:13.532Z,8.10
2019-02-12T16:33:41.137Z,6.97
2019-02-12T16:36:08.631Z,7.40
2019-02-12T16:38:36.145Z,5.77
2019-02-12T16:41:03.693Z,4.37
2019-02-12T16:43:31.217Z,5.33
